Time;durP1;ratioP1;P1;durP2;ratioP2;P2;SDS_P1;SDS_P2;PMS_P1;PMS_P2;Temp;Humidity;BMP_temperature;BMP_pressure;BME280_temperature;BME280_humidity;BME280_pressure;Samples;Min_cycle;Max_cycle;Signal;HPM_P1;HPM_P2
2023/12/03 00:00:39;;;;;;;0.45;0.40;;;;;;;12.83;97.64;101811.59;10452922;28;20131;-81
2023/12/03 00:05:41;;;;;;;0.40;0.40;;;;;;;12.41;98.42;101811.09;10447614;28;20404;-81
2023/12/03 00:10:43;;;;;;;0.40;0.40;;;;;;;12.02;99.42;101818.47;10446310;28;20049;-81
2023/12/03 00:15:45;;;;;;;0.20;0.20;;;;;;;12.31;99.26;101813.41;10460255;28;20128;-81
2023/12/03 00:20:47;;;;;;;2.67;1.83;;;;;;;11.83;100.00;101813.44;10439234;28;20045;-81
2023/12/03 00:25:49;;;;;;;0.75;0.70;;;;;;;11.65;100.00;101817.13;10441959;28;20045;-81
2023/12/03 00:30:51;;;;;;;0.65;0.65;;;;;;;11.07;100.00;101816.69;10442528;28;20111;-81
2023/12/03 00:35:53;;;;;;;1.13;1.05;;;;;;;10.40;100.00;101818.34;10439698;28;20563;-80
2023/12/03 00:40:55;;;;;;;0.63;0.40;;;;;;;10.05;100.00;101816.84;10450694;28;20044;-81
2023/12/03 00:45:57;;;;;;;0.75;0.75;;;;;;;10.97;100.00;101824.03;10455008;28;20043;-81
2023/12/03 00:50:59;;;;;;;0.00;0.00;;;;;;;12.11;100.00;101819.59;10436507;28;20037;-81
2023/12/03 00:56:01;;;;;;;1.33;1.23;;;;;;;12.53;99.86;101821.88;10449096;28;20064;-81
2023/12/03 01:01:04;;;;;;;11.85;3.53;;;;;;;11.16;100.00;101823.03;10436523;28;20075;-81
2023/12/03 01:06:07;;;;;;;0.30;0.30;;;;;;;11.25;100.00;101820.81;10440472;28;20135;-81
2023/12/03 01:11:10;;;;;;;1.85;1.17;;;;;;;11.50;100.00;101827.75;10433084;28;20458;-81
2023/12/03 01:16:16;;;;;;;0.63;0.63;;;;;;;11.51;100.00;101826.94;10435005;28;20411;-80
2023/12/03 01:21:18;;;;;;;1.10;1.02;;;;;;;11.74;100.00;101832.94;10446671;28;20072;-80
2023/12/03 01:26:20;;;;;;;0.00;0.00;;;;;;;11.78;100.00;101830.47;10437042;28;20052;-81
2023/12/03 01:31:22;;;;;;;1.02;0.82;;;;;;;10.58;100.00;101837.97;10442259;28;20049;-80
2023/12/03 01:36:24;;;;;;;1.63;1.15;;;;;;;12.04;100.00;101842.63;10461106;28;20524;-80
2023/12/03 01:41:26;;;;;;;0.47;0.47;;;;;;;12.99;98.93;101849.16;10443964;28;20045;-81
2023/12/03 01:46:28;;;;;;;0.88;0.75;;;;;;;11.71;100.00;101861.25;10447099;28;20514;-81
2023/12/03 01:51:31;;;;;;;0.45;0.45;;;;;;;12.38;98.94;101864.47;10438557;28;20056;-81
2023/12/03 01:56:32;;;;;;;0.57;0.57;;;;;;;11.78;100.00;101880.38;10453591;28;20073;-80
2023/12/03 02:01:34;;;;;;;0.47;0.47;;;;;;;11.47;100.00;101888.69;10459197;28;20044;-80
2023/12/03 02:06:36;;;;;;;1.35;1.25;;;;;;;11.31;100.00;101892.41;10451985;28;20037;-81
2023/12/03 02:11:38;;;;;;;1.65;1.55;;;;;;;11.77;100.00;101893.25;10443536;28;20741;-80
2023/12/03 02:16:47;;;;;;;0.43;0.43;;;;;;;12.85;100.00;101884.97;10446534;28;20136;-81
2023/12/03 02:21:49;;;;;;;0.47;0.47;;;;;;;13.12;100.00;101881.47;10438233;28;20045;-81
2023/12/03 02:26:51;;;;;;;0.60;0.60;;;;;;;12.02;100.00;101897.63;10443266;28;20389;-81
2023/12/03 02:31:53;;;;;;;1.73;1.63;;;;;;;12.53;100.00;101895.09;10449140;28;20060;-81
2023/12/03 02:36:54;;;;;;;3.33;0.43;;;;;;;12.30;100.00;101899.50;10444186;28;20045;-81
2023/12/03 02:41:56;;;;;;;1.38;1.27;;;;;;;12.29;100.00;101892.56;10447095;28;20069;-81
2023/12/03 02:46:58;;;;;;;0.85;0.85;;;;;;;11.39;100.00;101907.34;10457905;28;20040;-80
2023/12/03 02:51:59;;;;;;;1.15;0.73;;;;;;;11.57;100.00;101904.59;10444894;28;20048;-80
2023/12/03 02:57:03;;;;;;;1.52;1.40;;;;;;;11.96;100.00;101890.50;10450662;28;20068;-81
2023/12/03 03:02:04;;;;;;;0.93;0.93;;;;;;;10.71;100.00;101890.91;10439023;28;20041;-81
2023/12/03 03:07:07;;;;;;;1.95;0.77;;;;;;;10.66;100.00;101889.81;10456713;28;20044;-82
2023/12/03 03:12:08;;;;;;;0.55;0.55;;;;;;;11.05;100.00;101898.31;10447086;28;20503;-82
2023/12/03 03:17:10;;;;;;;0.57;0.57;;;;;;;10.45;100.00;101894.16;10427271;28;20053;-82
2023/12/03 03:22:13;;;;;;;0.82;0.43;;;;;;;12.04;100.00;101896.00;10438639;28;20037;-81
2023/12/03 03:27:14;;;;;;;0.55;0.55;;;;;;;11.42;100.00;101891.09;10428641;28;20147;-82
2023/12/03 03:32:16;;;;;;;0.57;0.40;;;;;;;10.99;100.00;101895.44;10454806;28;20041;-81
2023/12/03 03:37:18;;;;;;;0.10;0.10;;;;;;;11.01;100.00;101898.97;10442403;28;20119;-83
2023/12/03 03:42:20;;;;;;;0.98;0.57;;;;;;;11.08;100.00;101900.97;10436977;28;20104;-82
2023/12/03 03:47:22;;;;;;;2.20;2.00;;;;;;;11.85;100.00;101905.63;10447219;28;20107;-82
2023/12/03 03:52:24;;;;;;;0.77;0.57;;;;;;;12.01;100.00;101904.53;10458509;28;20050;-82
2023/12/03 03:57:25;;;;;;;0.30;0.30;;;;;;;11.67;100.00;101907.53;10443749;28;20084;-82
2023/12/03 04:02:27;;;;;;;0.88;0.85;;;;;;;11.63;100.00;101911.69;10446462;28;20041;-81
2023/12/03 04:07:29;;;;;;;0.47;0.38;;;;;;;11.72;100.00;101916.31;10427288;28;20120;-82
2023/12/03 04:12:31;;;;;;;0.20;0.20;;;;;;;11.83;100.00;101914.13;10439122;28;20049;-82
2023/12/03 04:17:33;;;;;;;1.20;1.13;;;;;;;11.59;100.00;101920.13;10430725;28;20056;-82
2023/12/03 04:22:35;;;;;;;5.15;1.80;;;;;;;11.87;100.00;101922.03;10450839;28;20045;-82
2023/12/03 04:27:36;;;;;;;2.20;1.33;;;;;;;12.49;100.00;101923.38;10454626;28;20047;-82
2023/12/03 04:32:38;;;;;;;2.17;0.82;;;;;;;12.11;100.00;101915.16;10445740;28;20037;-82
2023/12/03 04:37:40;;;;;;;0.52;0.52;;;;;;;11.87;100.00;101919.47;10441032;28;20052;-82
2023/12/03 04:42:43;;;;;;;0.22;0.17;;;;;;;12.20;100.00;101925.81;10445117;28;20428;-83
2023/12/03 04:47:45;;;;;;;0.45;0.45;;;;;;;11.98;100.00;101919.03;10427256;28;20103;-83
2023/12/03 04:52:47;;;;;;;2.20;1.85;;;;;;;12.19;100.00;101919.78;10441863;28;20033;-83
2023/12/03 04:57:49;;;;;;;0.20;0.20;;;;;;;12.18;100.00;101919.72;10440334;28;20048;-83
2023/12/03 05:02:50;;;;;;;1.50;1.40;;;;;;;10.43;100.00;101929.25;10444378;28;20055;-82
2023/12/03 05:07:52;;;;;;;3.92;3.03;;;;;;;11.47;100.00;101920.53;10423712;28;20049;-83
2023/12/03 05:12:54;;;;;;;8.35;1.95;;;;;;;11.32;100.00;101914.81;10423387;28;20045;-82
2023/12/03 05:17:56;;;;;;;1.88;1.25;;;;;;;11.40;100.00;101911.69;10439125;28;20045;-82
2023/12/03 05:22:58;;;;;;;0.85;0.85;;;;;;;11.10;100.00;101909.66;10441899;28;20033;-82
2023/12/03 05:28:01;;;;;;;0.38;0.38;;;;;;;9.57;100.00;101930.56;10457867;28;20140;-82
2023/12/03 05:33:03;;;;;;;2.05;1.67;;;;;;;10.97;100.00;101922.00;10452650;28;20073;-83
2023/12/03 05:38:05;;;;;;;0.68;0.68;;;;;;;11.13;100.00;101936.41;10435596;28;20049;-83
2023/12/03 05:43:06;;;;;;;1.20;1.10;;;;;;;11.34;100.00;101938.94;10438191;28;20053;-82
2023/12/03 05:48:08;;;;;;;0.68;0.52;;;;;;;10.27;100.00;101957.69;10420885;28;20094;-82
2023/12/03 05:53:10;;;;;;;7.18;1.15;;;;;;;11.16;100.00;101945.16;10437822;28;20102;-82
2023/12/03 05:58:12;;;;;;;0.93;0.90;;;;;;;9.65;100.00;101960.06;10449898;28;20140;-82
2023/12/03 06:03:16;;;;;;;0.30;0.30;;;;;;;9.94;100.00;101960.53;10422134;28;20103;-82
2023/12/03 06:08:18;;;;;;;0.50;0.50;;;;;;;10.00;100.00;101953.09;10459509;28;20853;-82
2023/12/03 06:13:20;;;;;;;1.85;1.52;;;;;;;10.22;100.00;101969.50;10424359;28;20036;-82
2023/12/03 06:18:21;;;;;;;2.05;0.65;;;;;;;10.40;100.00;101970.34;10431091;28;20049;-83
2023/12/03 06:23:23;;;;;;;1.52;1.42;;;;;;;9.26;100.00;101975.38;10450360;28;20079;-81
2023/12/03 06:28:25;;;;;;;1.25;1.15;;;;;;;10.02;100.00;101971.19;10447034;28;20069;-82
2023/12/03 06:33:27;;;;;;;0.30;0.30;;;;;;;9.16;100.00;101964.66;10449728;28;20044;-81
2023/12/03 06:38:29;;;;;;;9.75;1.65;;;;;;;10.73;100.00;101964.88;10426518;28;20554;-81
2023/12/03 06:43:31;;;;;;;2.28;1.85;;;;;;;10.01;100.00;101965.16;10448698;28;20045;-80
2023/12/03 06:48:33;;;;;;;1.20;1.10;;;;;;;10.35;100.00;101976.97;10429060;28;20500;-81
2023/12/03 06:53:35;;;;;;;0.45;0.45;;;;;;;10.05;100.00;101976.47;10432816;28;20045;-82
2023/12/03 06:58:37;;;;;;;5.15;1.40;;;;;;;9.17;100.00;101998.94;10443014;28;20490;-81
2023/12/03 07:03:39;;;;;;;1.20;0.80;;;;;;;9.72;100.00;101995.56;10447307;28;20128;-81
2023/12/03 07:08:41;;;;;;;0.10;0.10;;;;;;;9.53;100.00;101998.97;10435986;28;20045;-82
2023/12/03 07:13:43;;;;;;;2.00;1.23;;;;;;;10.25;100.00;102005.69;10443368;28;20040;-81
2023/12/03 07:18:45;;;;;;;0.45;0.45;;;;;;;10.48;100.00;102024.78;10444134;28;20075;-81
2023/12/03 07:23:47;;;;;;;0.47;0.47;;;;;;;9.55;100.00;102022.19;10443481;28;20040;-81
2023/12/03 07:28:49;;;;;;;1.85;0.57;;;;;;;10.85;100.00;102038.38;10430160;28;20121;-81
2023/12/03 07:33:51;;;;;;;4.13;0.52;;;;;;;11.24;100.00;102030.56;10464392;28;20052;-81
2023/12/03 07:38:53;;;;;;;0.35;0.35;;;;;;;12.00;100.00;102036.16;10451453;28;20139;-81
2023/12/03 07:43:55;;;;;;;0.30;0.30;;;;;;;10.09;100.00;102051.34;10450860;28;20076;-83
2023/12/03 07:48:56;;;;;;;0.93;0.90;;;;;;;10.99;100.00;102055.31;10443564;28;20057;-81
2023/12/03 07:53:58;;;;;;;0.52;0.52;;;;;;;10.27;100.00;102060.72;10444471;28;20186;-81
2023/12/03 07:59:00;;;;;;;0.35;0.35;;;;;;;11.00;100.00;102072.56;10428687;28;20132;-81
2023/12/03 08:04:03;;;;;;;0.73;0.73;;;;;;;9.82;100.00;102069.84;10441654;28;20052;-81
2023/12/03 08:09:05;;;;;;;0.00;0.00;;;;;;;10.99;100.00;102085.41;10436103;28;20053;-81
2023/12/03 08:14:07;;;;;;;0.50;0.47;;;;;;;8.51;100.00;102073.53;10453411;28;20063;-81
2023/12/03 08:19:09;;;;;;;0.75;0.75;;;;;;;9.42;100.00;102073.03;10439436;28;20068;-81
2023/12/03 08:24:11;;;;;;;1.73;1.63;;;;;;;8.97;100.00;102064.81;10475437;28;20037;-81
2023/12/03 08:29:13;;;;;;;0.20;0.20;;;;;;;8.63;100.00;102058.81;10445131;28;20094;-80
2023/12/03 08:34:15;;;;;;;0.50;0.50;;;;;;;9.90;100.00;102044.47;10446032;28;20132;-80
2023/12/03 08:39:16;;;;;;;0.82;0.82;;;;;;;11.11;100.00;102053.28;10442958;28;20100;-81
2023/12/03 08:44:18;;;;;;;1.25;0.65;;;;;;;9.07;100.00;102061.88;10423964;28;20485;-80
2023/12/03 08:49:20;;;;;;;1.13;0.82;;;;;;;9.18;100.00;102050.47;10436869;28;20084;-81
2023/12/03 08:54:22;;;;;;;0.35;0.35;;;;;;;9.80;100.00;102050.84;10449024;28;20403;-80
2023/12/03 08:59:24;;;;;;;1.23;0.55;;;;;;;8.18;100.00;102064.09;10437324;28;20111;-80
2023/12/03 09:04:26;;;;;;;0.63;0.35;;;;;;;9.46;100.00;102067.25;10436397;28;20048;-81
2023/12/03 09:09:28;;;;;;;0.65;0.65;;;;;;;9.27;100.00;102070.59;10437312;28;20065;-81
2023/12/03 09:14:30;;;;;;;0.65;0.65;;;;;;;8.62;100.00;102081.81;10435276;28;20044;-81
2023/12/03 09:19:31;;;;;;;0.75;0.75;;;;;;;9.44;100.00;102079.16;10430575;28;20045;-81
2023/12/03 09:24:33;;;;;;;1.77;1.00;;;;;;;9.66;100.00;102086.25;10445559;28;20094;-80
2023/12/03 09:29:36;;;;;;;1.35;1.25;;;;;;;9.63;100.00;102091.22;10431910;28;20110;-80
2023/12/03 09:34:38;;;;;;;2.53;1.20;;;;;;;9.99;100.00;102091.22;10441038;28;20049;-80
2023/12/03 09:39:39;;;;;;;0.75;0.75;;;;;;;9.80;100.00;102086.88;10430376;28;20040;-80
2023/12/03 09:45:01;;;;;;;0.15;0.15;;;;;;;9.76;100.00;102085.00;10434736;28;20110;-81
2023/12/03 09:50:04;;;;;;;0.30;0.30;;;;;;;9.16;100.00;102092.31;10426669;28;20127;-81
2023/12/03 09:55:07;;;;;;;0.30;0.30;;;;;;;9.62;100.00;102098.88;10451297;28;20398;-80
2023/12/03 10:00:10;;;;;;;0.20;0.20;;;;;;;8.92;100.00;102103.13;10434457;28;20071;-81
2023/12/03 10:05:12;;;;;;;1.33;1.23;;;;;;;9.83;100.00;102099.91;10445849;28;20073;-80
2023/12/03 10:10:18;;;;;;;0.43;0.43;;;;;;;9.42;100.00;102109.03;10444592;28;20049;-81
2023/12/03 10:15:21;;;;;;;0.10;0.10;;;;;;;10.41;100.00;102098.34;10444518;28;20669;-81
2023/12/03 10:20:26;;;;;;;1.17;0.70;;;;;;;9.42;100.00;102106.47;10427188;28;20128;-81
2023/12/03 10:25:29;;;;;;;1.42;1.33;;;;;;;11.09;100.00;102087.56;10426965;28;20047;-81
2023/12/03 10:30:32;;;;;;;2.67;0.93;;;;;;;10.53;100.00;102074.81;10454604;28;20040;-81
2023/12/03 10:35:36;;;;;;;0.65;0.65;;;;;;;10.96;100.00;102081.00;10416184;28;20103;-81
2023/12/03 10:40:37;;;;;;;0.10;0.10;;;;;;;11.31;100.00;102073.00;10445928;28;20045;-81
2023/12/03 10:45:39;;;;;;;2.15;0.93;;;;;;;11.38;100.00;102070.72;10452061;28;20063;-81
2023/12/03 10:50:45;;;;;;;1.05;0.75;;;;;;;11.83;100.00;102063.88;10459417;28;20045;-82
2023/12/03 10:55:48;;;;;;;1.08;0.75;;;;;;;10.86;100.00;102069.41;10426920;28;20553;-82
2023/12/03 11:01:00;;;;;;;0.95;0.52;;;;;;;11.24;100.00;102067.56;10432955;28;20045;-82
2023/12/03 11:06:04;;;;;;;0.75;0.75;;;;;;;11.30;99.18;102060.91;10441311;28;20056;-82
2023/12/03 11:11:11;;;;;;;1.40;0.73;;;;;;;11.60;99.47;102048.38;10442735;28;20068;-81
2023/12/03 11:16:14;;;;;;;0.13;0.13;;;;;;;11.39;100.00;102038.94;10430561;28;20098;-80
2023/12/03 11:21:37;;;;;;;1.77;1.33;;;;;;;11.85;100.00;102046.75;10439528;28;20041;-79
2023/12/03 11:26:42;;;;;;;0.38;0.38;;;;;;;10.98;100.00;102048.44;10417579;28;20764;-79
2023/12/03 11:31:44;;;;;;;1.85;1.60;;;;;;;11.49;100.00;102032.44;10431533;28;20048;-79
2023/12/03 11:36:50;;;;;;;0.75;0.75;;;;;;;11.75;98.74;102030.91;10428573;28;20045;-79
2023/12/03 11:42:03;;;;;;;0.10;0.10;;;;;;;11.87;100.00;102020.16;10439731;28;20053;-78
2023/12/03 11:47:11;;;;;;;0.50;0.50;;;;;;;11.07;100.00;102022.13;10468997;28;20053;-78
2023/12/03 11:52:14;;;;;;;0.75;0.65;;;;;;;11.67;100.00;102018.53;10456513;28;20059;-79
2023/12/03 11:57:16;;;;;;;0.85;0.75;;;;;;;11.28;100.00;102014.41;10451862;28;20052;-79
2023/12/03 12:02:18;;;;;;;1.20;1.10;;;;;;;12.24;100.00;102001.75;10435415;28;20182;-78
2023/12/03 12:07:20;;;;;;;0.40;0.40;;;;;;;11.53;100.00;101990.47;10458099;28;20048;-77
2023/12/03 12:12:22;;;;;;;1.70;1.60;;;;;;;11.25;100.00;101989.34;10440242;28;20537;-78
2023/12/03 12:17:25;;;;;;;1.65;0.73;;;;;;;10.58;100.00;102001.16;10445518;28;20135;-78
2023/12/03 12:22:30;;;;;;;0.30;0.30;;;;;;;11.55;100.00;101996.56;10444994;28;20045;-78
2023/12/03 12:27:32;;;;;;;1.88;1.60;;;;;;;11.48;100.00;101988.53;10429516;28;20049;-78
2023/12/03 12:32:35;;;;;;;1.40;0.75;;;;;;;10.81;99.03;101992.69;10421241;28;20068;-78
2023/12/03 12:37:37;;;;;;;0.70;0.40;;;;;;;10.27;100.00;101998.91;10428398;28;20140;-78
2023/12/03 12:42:42;;;;;;;0.35;0.30;;;;;;;11.75;99.90;101984.44;10450118;28;20075;-77
2023/12/03 12:47:44;;;;;;;0.63;0.52;;;;;;;11.99;99.67;101978.47;10440751;28;20052;-77
2023/12/03 12:52:56;;;;;;;0.03;0.03;;;;;;;11.39;100.00;101983.88;10444656;28;20048;-77
2023/12/03 12:57:58;;;;;;;0.55;0.52;;;;;;;12.81;100.00;101983.94;10431958;28;20070;-78
2023/12/03 13:03:01;;;;;;;0.80;0.80;;;;;;;12.04;99.88;101992.44;10446762;28;20557;-78
2023/12/03 13:08:03;;;;;;;2.90;1.45;;;;;;;10.62;100.00;101991.88;10427801;28;20067;-77
2023/12/03 13:13:05;;;;;;;0.08;0.08;;;;;;;12.32;97.79;101977.06;10434574;28;20055;-77
2023/12/03 13:18:07;;;;;;;0.55;0.30;;;;;;;12.98;97.54;101976.78;10442326;28;20064;-77
2023/12/03 13:23:23;;;;;;;0.28;0.28;;;;;;;11.70;98.68;101972.16;10423912;28;20041;-78
2023/12/03 13:28:24;;;;;;;0.17;0.17;;;;;;;11.42;97.19;101966.81;10428028;28;20045;-79
2023/12/03 13:33:27;;;;;;;0.68;0.43;;;;;;;11.71;97.25;101959.34;10441184;28;20044;-78
2023/12/03 13:38:29;;;;;;;1.65;0.75;;;;;;;12.27;99.61;101958.81;10439324;28;20098;-78
2023/12/03 13:43:30;;;;;;;0.60;0.60;;;;;;;13.07;96.34;101952.03;10438701;28;20127;-79
2023/12/03 13:48:32;;;;;;;0.63;0.38;;;;;;;12.50;95.46;101945.81;10429983;28;20045;-78
2023/12/03 13:53:34;;;;;;;0.80;0.40;;;;;;;12.30;96.17;101942.53;10428457;28;20118;-78
2023/12/03 13:58:36;;;;;;;4.88;0.68;;;;;;;11.86;99.28;101934.91;10428705;28;20053;-78
2023/12/03 14:03:38;;;;;;;0.73;0.40;;;;;;;11.73;94.57;101934.44;10446065;28;20074;-78
2023/12/03 14:08:44;;;;;;;0.00;0.00;;;;;;;12.13;96.02;101921.25;10443704;28;20041;-78
2023/12/03 14:13:45;;;;;;;0.00;0.00;;;;;;;12.79;95.18;101908.03;10413832;28;20043;-78
2023/12/03 14:18:47;;;;;;;1.35;0.70;;;;;;;12.13;95.79;101917.00;10435111;28;20044;-78
2023/12/03 14:23:49;;;;;;;0.57;0.57;;;;;;;12.60;92.48;101909.13;10435291;28;20048;-78
2023/12/03 14:28:51;;;;;;;0.30;0.30;;;;;;;13.40;94.81;101918.59;10437317;28;20064;-78
2023/12/03 14:33:52;;;;;;;0.90;0.82;;;;;;;13.36;94.19;101914.13;10453558;28;20403;-78
2023/12/03 14:38:55;;;;;;;0.10;0.10;;;;;;;11.60;94.77;101927.06;10443739;28;20567;-79
2023/12/03 14:43:56;;;;;;;0.30;0.30;;;;;;;11.87;96.34;101931.50;10444053;28;20729;-79
2023/12/03 14:48:59;;;;;;;0.13;0.13;;;;;;;12.43;93.43;101925.75;10434475;28;20132;-78
2023/12/03 14:54:01;;;;;;;3.05;2.08;;;;;;;12.65;96.17;101930.84;10425439;28;20033;-78
2023/12/03 14:59:05;;;;;;;1.48;1.20;;;;;;;12.01;95.57;101938.09;10429750;28;20045;-78
2023/12/03 15:04:07;;;;;;;2.17;1.10;;;;;;;11.99;96.12;101936.28;10450281;28;20078;-78
2023/12/03 15:09:09;;;;;;;0.10;0.10;;;;;;;12.03;95.91;101933.84;10440070;28;20052;-80
2023/12/03 15:14:11;;;;;;;0.10;0.08;;;;;;;12.08;95.15;101930.56;10429976;28;20460;-79
2023/12/03 15:19:13;;;;;;;0.00;0.00;;;;;;;11.51;95.75;101925.00;10444402;28;20047;-79
2023/12/03 15:24:15;;;;;;;0.28;0.20;;;;;;;12.28;94.62;101915.78;10440786;28;20451;-78
2023/12/03 15:29:19;;;;;;;0.32;0.32;;;;;;;11.11;96.85;101918.28;10445128;28;20078;-78
2023/12/03 15:34:21;;;;;;;0.28;0.28;;;;;;;11.52;95.78;101913.88;10446958;28;20059;-79
2023/12/03 15:39:23;;;;;;;0.47;0.47;;;;;;;12.13;95.86;101898.91;10446265;28;20052;-79
2023/12/03 15:44:27;;;;;;;0.30;0.30;;;;;;;12.24;95.55;101899.28;10421335;28;20049;-77
2023/12/03 15:49:29;;;;;;;0.03;0.03;;;;;;;12.23;95.23;101889.78;10444492;28;20115;-78
2023/12/03 15:54:31;;;;;;;0.00;0.00;;;;;;;11.50;96.82;101896.56;10420492;28;20060;-78
2023/12/03 15:59:33;;;;;;;0.60;0.50;;;;;;;11.27;97.51;101888.81;10441452;28;20059;-78
2023/12/03 16:04:35;;;;;;;0.17;0.17;;;;;;;11.33;97.25;101878.75;10447105;28;20043;-79
2023/12/03 16:09:40;;;;;;;0.70;0.70;;;;;;;10.84;97.73;101879.38;10436909;28;20407;-78
2023/12/03 16:14:41;;;;;;;0.20;0.20;;;;;;;10.57;96.67;101869.69;10445396;28;20044;-79
2023/12/03 16:19:43;;;;;;;1.27;1.17;;;;;;;11.89;95.14;101873.03;10433797;28;20090;-80
2023/12/03 16:24:45;;;;;;;6.03;3.40;;;;;;;10.95;96.00;101867.81;10425083;28;20045;-79
2023/12/03 16:29:47;;;;;;;0.25;0.25;;;;;;;10.85;96.01;101861.41;10437174;28;20488;-78
2023/12/03 16:34:49;;;;;;;1.55;0.90;;;;;;;10.65;97.03;101846.84;10436073;28;20045;-77
2023/12/03 16:39:51;;;;;;;2.80;0.85;;;;;;;11.53;93.90;101842.47;10447874;28;20496;-78
2023/12/03 16:44:53;;;;;;;0.40;0.40;;;;;;;12.14;94.16;101836.06;10439031;28;20044;-78
2023/12/03 16:49:55;;;;;;;0.73;0.40;;;;;;;10.03;95.20;101829.63;10451894;28;20115;-77
2023/12/03 16:54:57;;;;;;;0.95;0.77;;;;;;;11.81;93.58;101818.56;10445074;28;20839;-78
2023/12/03 16:59:59;;;;;;;0.40;0.40;;;;;;;11.06;95.57;101829.53;10438073;28;20721;-78
2023/12/03 17:05:01;;;;;;;2.92;1.55;;;;;;;11.77;93.18;101826.13;10439278;28;20182;-78
2023/12/03 17:10:03;;;;;;;1.05;0.95;;;;;;;11.81;92.25;101820.25;10443225;28;20048;-78
2023/12/03 17:15:09;;;;;;;6.07;4.05;;;;;;;10.75;94.88;101818.91;10427760;28;20036;-77
2023/12/03 17:20:11;;;;;;;7.32;2.28;;;;;;;11.46;92.81;101814.69;10425002;28;20061;-78
2023/12/03 17:25:16;;;;;;;1.85;1.10;;;;;;;11.24;94.12;101816.47;10439958;28;20045;-77
2023/12/03 17:30:19;;;;;;;3.72;0.93;;;;;;;11.15;94.88;101804.09;10442104;28;20902;-77
2023/12/03 17:35:22;;;;;;;0.35;0.35;;;;;;;11.10;96.02;101797.88;10445931;28;20036;-77
2023/12/03 17:40:25;;;;;;;0.88;0.82;;;;;;;11.12;95.58;101780.78;10416765;28;20140;-79
2023/12/03 17:45:27;;;;;;;0.57;0.50;;;;;;;11.38;96.16;101780.88;10433541;28;20063;-77
2023/12/03 17:50:31;;;;;;;0.93;0.60;;;;;;;11.39;95.03;101778.34;10434473;28;20462;-78
2023/12/03 17:55:33;;;;;;;0.98;0.50;;;;;;;11.45;94.10;101771.63;10434224;28;20037;-78
2023/12/03 18:00:35;;;;;;;0.82;0.82;;;;;;;11.01;95.04;101764.88;10428468;28;20048;-78
2023/12/03 18:05:37;;;;;;;0.55;0.30;;;;;;;10.95;95.16;101754.34;10445093;28;20080;-78
2023/12/03 18:10:39;;;;;;;0.10;0.10;;;;;;;11.48;94.77;101740.78;10440198;28;20052;-78
2023/12/03 18:15:41;;;;;;;3.13;0.93;;;;;;;11.28;96.39;101748.72;10447586;28;20041;-77
2023/12/03 18:20:43;;;;;;;0.13;0.13;;;;;;;11.94;94.08;101747.56;10444113;28;20459;-78
2023/12/03 18:25:45;;;;;;;0.40;0.40;;;;;;;12.24;93.32;101733.03;10455886;28;20041;-79
2023/12/03 18:30:47;;;;;;;1.20;1.10;;;;;;;12.17;93.98;101739.72;10433302;28;20044;-78
2023/12/03 18:35:51;;;;;;;0.85;0.75;;;;;;;11.11;97.08;101748.97;10450110;28;20041;-78
2023/12/03 18:40:53;;;;;;;0.80;0.80;;;;;;;10.85;99.80;101741.91;10448666;28;20056;-78
2023/12/03 18:45:58;;;;;;;0.08;0.08;;;;;;;10.45;100.00;101730.94;10453398;28;20040;-78
2023/12/03 18:51:02;;;;;;;6.38;4.85;;;;;;;10.90;100.00;101730.97;10443467;28;20052;-78
2023/12/03 18:56:05;;;;;;;0.77;0.77;;;;;;;9.19;100.00;101727.38;10451877;28;20045;-77
2023/12/03 19:01:08;;;;;;;0.43;0.43;;;;;;;10.33;100.00;101715.84;10453126;28;20049;-79
2023/12/03 19:06:10;;;;;;;2.45;1.27;;;;;;;10.09;100.00;101715.75;10444471;28;20056;-78
2023/12/03 19:11:12;;;;;;;1.75;1.65;;;;;;;10.35;100.00;101719.38;10455188;28;20052;-78
2023/12/03 19:16:14;;;;;;;1.67;0.55;;;;;;;9.98;100.00;101703.28;10444126;28;20588;-78
2023/12/03 19:21:18;;;;;;;0.57;0.57;;;;;;;10.56;100.00;101706.50;10441644;28;20041;-78
2023/12/03 19:26:20;;;;;;;1.48;0.60;;;;;;;10.05;100.00;101711.28;10441835;28;20053;-78
2023/12/03 19:31:21;;;;;;;2.10;1.02;;;;;;;9.39;100.00;101689.69;10440477;28;20063;-79
2023/12/03 19:36:23;;;;;;;0.10;0.10;;;;;;;10.22;100.00;101688.78;10448239;28;20132;-80
2023/12/03 19:41:25;;;;;;;0.32;0.30;;;;;;;9.96;100.00;101688.59;10463676;28;20056;-77
2023/12/03 19:46:27;;;;;;;0.00;0.00;;;;;;;9.88;100.00;101679.69;10441858;28;20041;-78
2023/12/03 19:51:29;;;;;;;0.10;0.10;;;;;;;9.85;100.00;101665.00;10442856;28;20135;-78
2023/12/03 19:56:30;;;;;;;0.03;0.03;;;;;;;11.46;100.00;101662.44;10438144;28;20407;-79
2023/12/03 20:01:32;;;;;;;0.55;0.55;;;;;;;11.18;100.00;101662.34;10454135;28;20048;-79
2023/12/03 20:06:34;;;;;;;0.10;0.10;;;;;;;10.54;100.00;101666.91;10431801;28;20159;-80
2023/12/03 20:11:36;;;;;;;0.10;0.10;;;;;;;11.40;100.00;101651.09;10431142;28;20629;-80
2023/12/03 20:16:38;;;;;;;0.38;0.17;;;;;;;10.68;100.00;101639.09;10436284;28;20067;-79
2023/12/03 20:21:39;;;;;;;0.00;0.00;;;;;;;10.67;100.00;101634.75;10450620;28;20053;-80
2023/12/03 20:26:41;;;;;;;0.32;0.32;;;;;;;10.63;100.00;101628.59;10444047;28;20157;-79
2023/12/03 20:31:43;;;;;;;0.35;0.35;;;;;;;10.72;100.00;101617.75;10464605;28;20118;-80
2023/12/03 20:36:44;;;;;;;0.75;0.65;;;;;;;10.34;100.00;101614.56;10451982;28;20059;-78
2023/12/03 20:41:46;;;;;;;0.68;0.63;;;;;;;10.11;100.00;101618.84;10435846;28;20048;-79
2023/12/03 20:46:48;;;;;;;0.10;0.10;;;;;;;10.92;100.00;101604.69;10425834;28;20045;-79
2023/12/03 20:51:49;;;;;;;0.00;0.00;;;;;;;9.90;100.00;101600.84;10436058;28;20056;-80
2023/12/03 20:56:51;;;;;;;0.75;0.30;;;;;;;10.18;100.00;101589.94;10445267;28;20045;-79
2023/12/03 21:01:53;;;;;;;0.10;0.10;;;;;;;11.03;100.00;101587.03;10427191;28;20136;-80
2023/12/03 21:06:55;;;;;;;0.88;0.88;;;;;;;11.24;100.00;101576.59;10433811;28;20053;-80
2023/12/03 21:11:57;;;;;;;0.15;0.15;;;;;;;10.69;100.00;101571.22;10443512;28;20107;-80
2023/12/03 21:17:00;;;;;;;0.10;0.10;;;;;;;10.75;100.00;101566.31;10439601;28;20057;-79
2023/12/03 21:22:02;;;;;;;0.05;0.05;;;;;;;10.56;100.00;101574.19;10452885;28;20098;-80
2023/12/03 21:27:06;;;;;;;0.00;0.00;;;;;;;9.82;100.00;101573.09;10430437;28;20057;-79
2023/12/03 21:32:10;;;;;;;0.00;0.00;;;;;;;10.21;100.00;101566.00;10447876;28;20032;-79
2023/12/03 21:37:12;;;;;;;1.80;1.50;;;;;;;10.92;100.00;101560.88;10441705;28;20442;-80
2023/12/03 21:42:20;;;;;;;0.70;0.70;;;;;;;10.69;100.00;101550.63;10452071;28;20044;-80
2023/12/03 21:47:22;;;;;;;0.00;0.00;;;;;;;11.77;100.00;101547.31;10463181;28;20040;-80
2023/12/03 21:52:24;;;;;;;0.10;0.10;;;;;;;11.09;100.00;101541.72;10422006;28;20558;-79
2023/12/03 21:57:26;;;;;;;0.65;0.40;;;;;;;10.82;100.00;101535.59;10449869;28;20045;-85
2023/12/03 22:02:28;;;;;;;0.32;0.32;;;;;;;11.51;100.00;101525.03;10453328;28;20709;-81
2023/12/03 22:07:30;;;;;;;0.22;0.22;;;;;;;10.63;100.00;101510.06;10462114;28;20045;-80
2023/12/03 22:12:32;;;;;;;0.00;0.00;;;;;;;10.60;100.00;101514.25;10453216;28;20041;-80
2023/12/03 22:17:35;;;;;;;0.65;0.65;;;;;;;10.07;100.00;101504.56;10444400;28;20056;-80
2023/12/03 22:22:37;;;;;;;0.15;0.15;;;;;;;10.55;100.00;101496.03;10454913;28;20482;-79
2023/12/03 22:27:38;;;;;;;0.35;0.35;;;;;;;10.68;100.00;101496.44;10436542;28;20468;-79
2023/12/03 22:32:42;;;;;;;0.00;0.00;;;;;;;10.34;100.00;101493.53;10447242;28;20069;-80
2023/12/03 22:37:44;;;;;;;0.80;0.73;;;;;;;10.70;100.00;101469.91;10436171;28;20508;-80
2023/12/03 22:42:46;;;;;;;0.50;0.50;;;;;;;10.04;100.00;101485.56;10434336;28;20043;-79
2023/12/03 22:47:48;;;;;;;0.52;0.47;;;;;;;10.57;100.00;101483.19;10448167;28;20049;-79
2023/12/03 22:52:50;;;;;;;0.13;0.13;;;;;;;11.50;100.00;101481.13;10449105;28;20094;-80
2023/12/03 22:57:52;;;;;;;1.23;1.13;;;;;;;10.26;100.00;101472.66;10449792;28;20411;-80